Time;durP1;ratioP1;P1;durP2;ratioP2;P2;SDS_P1;SDS_P2;PMS_P1;PMS_P2;Temp;Humidity;BMP_temperature;BMP_pressure;BME280_temperature;BME280_humidity;BME280_pressure;Samples;Min_cycle;Max_cycle;Signal;HPM_P1;HPM_P2
2022/12/02 00:00:45;;;;;;;;;;;21.20;38.20;;;;;;464622;256;1210;-44
2022/12/02 00:02:47;;;;;;;;;;;21.30;38.10;;;;;;464935;256;1367;-44
2022/12/02 00:04:48;;;;;;;;;;;21.50;37.90;;;;;;464829;256;1277;-44
2022/12/02 00:06:49;;;;;;;;;;;21.60;37.50;;;;;;464991;256;1318;-45
2022/12/02 00:08:51;;;;;;;;;;;21.80;37.30;;;;;;464667;256;1965;-44
2022/12/02 00:10:52;;;;;;;;;;;21.90;37.10;;;;;;464741;256;1210;-44
2022/12/02 00:12:53;;;;;;;;;;;22.00;36.90;;;;;;465087;256;1212;-44
2022/12/02 00:14:55;;;;;;;;;;;22.00;36.70;;;;;;464770;256;2167;-44
2022/12/02 00:16:56;;;;;;;;;;;22.10;36.50;;;;;;464545;256;1305;-44
2022/12/02 00:18:58;;;;;;;;;;;22.20;36.50;;;;;;464731;256;1268;-44
2022/12/02 00:20:59;;;;;;;;;;;22.20;36.30;;;;;;465026;256;1349;-44
2022/12/02 00:23:00;;;;;;;;;;;22.30;36.30;;;;;;464967;256;1222;-44
2022/12/02 00:25:02;;;;;;;;;;;22.30;36.20;;;;;;465071;256;1278;-44
2022/12/02 00:27:03;;;;;;;;;;;22.40;36.20;;;;;;465092;256;1344;-44
2022/12/02 00:29:04;;;;;;;;;;;22.40;36.10;;;;;;465122;256;1382;-44
2022/12/02 00:31:06;;;;;;;;;;;22.50;36.00;;;;;;465007;256;1308;-44
2022/12/02 00:33:07;;;;;;;;;;;22.50;35.90;;;;;;464837;256;1220;-44
2022/12/02 00:35:08;;;;;;;;;;;22.50;35.90;;;;;;464932;256;2214;-44
2022/12/02 00:37:10;;;;;;;;;;;22.60;35.80;;;;;;464690;256;1329;-44
2022/12/02 00:39:11;;;;;;;;;;;22.60;35.80;;;;;;464882;256;1248;-44
2022/12/02 00:41:12;;;;;;;;;;;22.60;35.80;;;;;;464739;256;1622;-44
2022/12/02 00:47:52;;;;;;;;;;;22.70;35.60;;;;;;464834;256;1386;-44
2022/12/02 00:49:54;;;;;;;;;;;22.70;35.60;;;;;;465010;256;1095;-44
2022/12/02 00:51:55;;;;;;;;;;;22.80;35.60;;;;;;464563;256;1339;-43
2022/12/02 00:53:56;;;;;;;;;;;22.80;35.50;;;;;;465134;256;1202;-44
2022/12/02 00:55:58;;;;;;;;;;;22.80;35.50;;;;;;464864;256;2158;-44
2022/12/02 00:57:59;;;;;;;;;;;22.80;35.50;;;;;;465127;256;1316;-44
2022/12/02 01:00:01;;;;;;;;;;;22.80;35.50;;;;;;465159;256;1112;-44
2022/12/02 01:02:02;;;;;;;;;;;22.90;35.50;;;;;;464741;256;1257;-44
2022/12/02 01:04:03;;;;;;;;;;;22.90;35.50;;;;;;464964;256;1321;-44
2022/12/02 01:06:05;;;;;;;;;;;22.90;35.40;;;;;;464436;256;1602;-44
2022/12/02 01:08:06;;;;;;;;;;;22.90;35.40;;;;;;464569;256;1235;-44
2022/12/02 01:10:07;;;;;;;;;;;22.90;35.40;;;;;;464647;256;1324;-44
2022/12/02 01:12:09;;;;;;;;;;;23.00;35.40;;;;;;464559;256;1253;-44
2022/12/02 01:14:10;;;;;;;;;;;23.00;35.40;;;;;;464727;256;1658;-44
2022/12/02 01:16:11;;;;;;;;;;;23.00;35.30;;;;;;464683;256;2209;-44
2022/12/02 01:18:13;;;;;;;;;;;23.00;35.30;;;;;;464640;256;1324;-45
2022/12/02 01:20:14;;;;;;;;;;;23.00;35.30;;;;;;464737;256;1361;-45
2022/12/02 01:22:15;;;;;;;;;;;23.00;35.30;;;;;;464611;256;1615;-43
2022/12/02 01:24:16;;;;;;;;;;;23.00;35.30;;;;;;464748;256;1373;-44
2022/12/02 01:26:18;;;;;;;;;;;23.10;35.20;;;;;;464600;256;1280;-44
2022/12/02 01:28:19;;;;;;;;;;;23.10;35.20;;;;;;464773;256;1349;-44
2022/12/02 01:30:20;;;;;;;;;;;23.10;35.20;;;;;;464742;256;1248;-44
2022/12/02 01:32:23;;;;;;;;;;;23.10;35.20;;;;;;464553;256;1348;-44
2022/12/02 01:34:23;;;;;;;;;;;23.10;35.20;;;;;;464506;256;2094;-44
2022/12/02 01:36:24;;;;;;;;;;;23.10;35.20;;;;;;464622;256;2171;-44
2022/12/02 01:38:26;;;;;;;;;;;23.10;35.20;;;;;;464644;256;1369;-44
2022/12/02 01:40:27;;;;;;;;;;;23.10;35.20;;;;;;464636;256;1389;-44
2022/12/02 01:42:28;;;;;;;;;;;23.10;35.20;;;;;;464723;256;1674;-45
2022/12/02 01:44:30;;;;;;;;;;;23.10;35.10;;;;;;464625;256;1282;-44
2022/12/02 01:46:31;;;;;;;;;;;23.20;35.20;;;;;;464648;256;1301;-44
2022/12/02 01:48:32;;;;;;;;;;;23.20;35.20;;;;;;464906;256;1244;-44
2022/12/02 01:50:34;;;;;;;;;;;23.10;35.10;;;;;;464714;256;1293;-44
2022/12/02 01:52:35;;;;;;;;;;;23.20;35.20;;;;;;464972;256;1349;-44
2022/12/02 01:54:36;;;;;;;;;;;23.20;35.20;;;;;;464971;256;1232;-44
2022/12/02 01:56:38;;;;;;;;;;;23.20;35.10;;;;;;464793;256;2174;-44
2022/12/02 01:58:39;;;;;;;;;;;23.20;35.10;;;;;;465138;256;1252;-44
2022/12/02 02:00:40;;;;;;;;;;;23.20;35.10;;;;;;464662;256;1474;-44
2022/12/02 02:02:42;;;;;;;;;;;23.20;35.10;;;;;;464744;256;1328;-44
2022/12/02 02:04:43;;;;;;;;;;;23.30;35.10;;;;;;464828;256;1313;-44
2022/12/02 02:06:44;;;;;;;;;;;23.30;35.10;;;;;;464699;256;1318;-44
2022/12/02 02:08:46;;;;;;;;;;;23.30;35.10;;;;;;464832;256;1339;-44
2022/12/02 02:10:47;;;;;;;;;;;23.30;35.10;;;;;;464673;256;1952;-44
2022/12/02 02:12:48;;;;;;;;;;;23.30;35.10;;;;;;464649;256;1232;-44
2022/12/02 02:14:50;;;;;;;;;;;23.30;35.10;;;;;;464815;256;1444;-45
2022/12/02 02:16:51;;;;;;;;;;;23.30;35.10;;;;;;464625;256;2210;-44
2022/12/02 02:18:52;;;;;;;;;;;23.30;35.00;;;;;;464540;256;1606;-44
2022/12/02 02:20:54;;;;;;;;;;;23.30;35.00;;;;;;464675;256;1701;-44
2022/12/02 02:22:55;;;;;;;;;;;23.30;35.00;;;;;;464875;256;1226;-44
2022/12/02 02:24:56;;;;;;;;;;;23.30;35.00;;;;;;464866;256;1707;-44
2022/12/02 02:26:58;;;;;;;;;;;23.30;35.00;;;;;;464591;256;1249;-44
2022/12/02 02:28:59;;;;;;;;;;;23.30;35.00;;;;;;464751;256;1305;-45
2022/12/02 02:31:00;;;;;;;;;;;23.30;35.00;;;;;;464607;256;1654;-44
2022/12/02 02:33:01;;;;;;;;;;;23.30;35.00;;;;;;464649;256;1675;-44
2022/12/02 02:35:03;;;;;;;;;;;23.40;35.10;;;;;;464586;256;1303;-44
2022/12/02 02:37:04;;;;;;;;;;;23.40;35.00;;;;;;464633;256;2206;-44
2022/12/02 02:39:06;;;;;;;;;;;23.40;35.10;;;;;;464762;256;1301;-44
2022/12/02 02:41:07;;;;;;;;;;;23.40;35.00;;;;;;464588;256;1375;-44
2022/12/02 02:43:08;;;;;;;;;;;23.40;35.00;;;;;;464604;256;1509;-43
2022/12/02 02:45:09;;;;;;;;;;;23.30;35.00;;;;;;464869;256;1560;-44
2022/12/02 02:47:11;;;;;;;;;;;23.30;35.20;;;;;;464801;256;1387;-44
2022/12/02 02:49:12;;;;;;;;;;;23.20;35.30;;;;;;464651;256;1397;-44
2022/12/02 02:51:13;;;;;;;;;;;23.00;35.50;;;;;;464696;256;1285;-44
2022/12/02 02:53:15;;;;;;;;;;;22.90;35.80;;;;;;464517;256;1510;-44
2022/12/02 02:55:16;;;;;;;;;;;22.70;36.10;;;;;;464970;256;1241;-44
2022/12/02 02:57:17;;;;;;;;;;;22.60;36.30;;;;;;464997;256;2167;-44
2022/12/02 02:59:19;;;;;;;;;;;22.50;36.50;;;;;;465097;256;1198;-44
2022/12/02 03:01:20;;;;;;;;;;;22.40;36.70;;;;;;464833;256;1319;-44
2022/12/02 03:03:22;;;;;;;;;;;22.30;36.90;;;;;;464589;256;1205;-44
2022/12/02 03:05:23;;;;;;;;;;;22.20;37.00;;;;;;465093;256;1210;-44
2022/12/02 03:07:24;;;;;;;;;;;22.20;37.00;;;;;;465076;256;1237;-44
2022/12/02 03:09:26;;;;;;;;;;;22.20;37.20;;;;;;464809;256;1279;-44
2022/12/02 03:11:27;;;;;;;;;;;22.10;37.20;;;;;;464666;256;1363;-44
2022/12/02 03:13:28;;;;;;;;;;;22.10;37.30;;;;;;464804;256;1300;-44
2022/12/02 03:15:30;;;;;;;;;;;22.10;37.30;;;;;;464670;256;1177;-43
2022/12/02 03:17:31;;;;;;;;;;;22.30;37.10;;;;;;464991;256;2256;-44
2022/12/02 03:19:32;;;;;;;;;;;22.40;36.70;;;;;;464701;256;1214;-43
2022/12/02 03:21:34;;;;;;;;;;;22.60;36.60;;;;;;465005;256;1384;-44
2022/12/02 03:23:35;;;;;;;;;;;22.60;36.50;;;;;;465095;256;1267;-43
2022/12/02 03:25:36;;;;;;;;;;;22.50;36.50;;;;;;464738;256;1262;-44
2022/12/02 03:27:38;;;;;;;;;;;22.40;36.70;;;;;;464669;256;1295;-44
2022/12/02 03:29:39;;;;;;;;;;;22.30;36.90;;;;;;464844;256;1309;-44
2022/12/02 03:31:40;;;;;;;;;;;22.10;37.10;;;;;;464686;256;1252;-44
2022/12/02 03:33:42;;;;;;;;;;;22.20;37.20;;;;;;464663;256;1248;-44
2022/12/02 03:35:43;;;;;;;;;;;22.10;37.30;;;;;;464530;256;1548;-44
2022/12/02 03:37:44;;;;;;;;;;;22.00;37.40;;;;;;464645;256;2202;-44
2022/12/02 03:39:45;;;;;;;;;;;22.00;37.50;;;;;;464771;256;1240;-44
2022/12/02 03:41:47;;;;;;;;;;;21.90;37.60;;;;;;464739;256;1195;-44
2022/12/02 03:43:48;;;;;;;;;;;21.80;37.70;;;;;;464817;256;1259;-44
2022/12/02 03:45:49;;;;;;;;;;;21.80;37.70;;;;;;465106;256;1264;-44
2022/12/02 03:47:51;;;;;;;;;;;21.80;37.70;;;;;;465087;256;1296;-44
2022/12/02 03:49:52;;;;;;;;;;;22.00;37.60;;;;;;464689;256;1393;-44
2022/12/02 03:51:53;;;;;;;;;;;22.20;37.30;;;;;;464661;256;1425;-44
2022/12/02 03:53:55;;;;;;;;;;;22.30;36.90;;;;;;464753;256;1607;-44
2022/12/02 03:55:56;;;;;;;;;;;22.40;36.70;;;;;;464998;256;1390;-44
2022/12/02 03:57:57;;;;;;;;;;;22.40;36.60;;;;;;464855;256;2162;-43
2022/12/02 03:59:59;;;;;;;;;;;22.30;36.70;;;;;;464685;256;1298;-44
2022/12/02 04:02:00;;;;;;;;;;;22.20;36.90;;;;;;464644;256;1242;-44
2022/12/02 04:04:02;;;;;;;;;;;22.10;37.20;;;;;;464671;256;1393;-44
2022/12/02 04:06:03;;;;;;;;;;;22.00;37.30;;;;;;464588;256;1282;-44
2022/12/02 04:08:04;;;;;;;;;;;22.00;37.40;;;;;;464794;256;1280;-44
2022/12/02 04:10:05;;;;;;;;;;;22.00;37.50;;;;;;464693;256;1241;-44
2022/12/02 04:12:07;;;;;;;;;;;21.90;37.60;;;;;;464663;256;1232;-44
2022/12/02 04:14:08;;;;;;;;;;;21.80;37.60;;;;;;464922;256;1393;-44
2022/12/02 04:16:09;;;;;;;;;;;21.80;37.70;;;;;;464757;256;1257;-44
2022/12/02 04:18:11;;;;;;;;;;;21.80;37.80;;;;;;464717;256;2198;-44
2022/12/02 04:20:12;;;;;;;;;;;21.80;37.80;;;;;;464938;256;1228;-44
2022/12/02 04:22:13;;;;;;;;;;;21.70;37.80;;;;;;464674;256;1285;-44
2022/12/02 04:24:14;;;;;;;;;;;21.70;37.90;;;;;;464745;256;1234;-44
2022/12/02 04:26:16;;;;;;;;;;;21.70;37.90;;;;;;464689;256;1325;-44
2022/12/02 04:28:17;;;;;;;;;;;21.70;38.00;;;;;;465016;256;1244;-44
2022/12/02 04:30:19;;;;;;;;;;;21.70;38.00;;;;;;464902;256;1281;-44
2022/12/02 04:32:20;;;;;;;;;;;21.70;38.00;;;;;;464819;256;1373;-44
2022/12/02 04:34:21;;;;;;;;;;;21.60;38.00;;;;;;464855;256;1287;-44
2022/12/02 04:36:22;;;;;;;;;;;21.60;38.00;;;;;;464677;256;2218;-44
2022/12/02 04:38:24;;;;;;;;;;;21.60;38.00;;;;;;464981;256;1286;-44
2022/12/02 04:40:25;;;;;;;;;;;21.60;38.00;;;;;;464647;256;1376;-44
2022/12/02 04:42:26;;;;;;;;;;;21.60;38.10;;;;;;464687;256;1385;-44
2022/12/02 04:44:28;;;;;;;;;;;21.60;38.10;;;;;;464707;256;1275;-44
2022/12/02 04:46:29;;;;;;;;;;;21.60;38.10;;;;;;465022;256;1314;-44
2022/12/02 04:48:30;;;;;;;;;;;21.60;38.10;;;;;;465052;256;1276;-43
2022/12/02 04:50:32;;;;;;;;;;;21.60;38.10;;;;;;464703;256;1265;-44
2022/12/02 04:52:33;;;;;;;;;;;21.50;38.00;;;;;;464896;256;1252;-44
2022/12/02 04:54:34;;;;;;;;;;;21.60;38.10;;;;;;465064;256;1254;-44
2022/12/02 04:56:36;;;;;;;;;;;21.60;38.10;;;;;;464645;256;2203;-43
2022/12/02 04:58:37;;;;;;;;;;;21.50;38.10;;;;;;464665;256;1190;-44
2022/12/02 05:00:38;;;;;;;;;;;21.50;38.20;;;;;;465140;256;1298;-44
2022/12/02 05:02:40;;;;;;;;;;;21.50;38.20;;;;;;464986;256;1277;-44
2022/12/02 05:04:41;;;;;;;;;;;21.50;38.20;;;;;;464694;256;1264;-44
2022/12/02 05:06:42;;;;;;;;;;;21.50;38.20;;;;;;464801;256;1256;-43
2022/12/02 05:08:44;;;;;;;;;;;21.50;38.20;;;;;;465067;256;1268;-44
2022/12/02 05:10:45;;;;;;;;;;;21.50;38.20;;;;;;464683;256;1246;-43
2022/12/02 05:12:46;;;;;;;;;;;21.50;38.20;;;;;;464855;256;1231;-43
2022/12/02 05:14:48;;;;;;;;;;;21.50;38.20;;;;;;464650;256;1251;-43
2022/12/02 05:16:49;;;;;;;;;;;21.50;38.20;;;;;;464926;256;2163;-44
2022/12/02 05:18:50;;;;;;;;;;;21.50;38.30;;;;;;464645;256;1481;-44
2022/12/02 05:20:51;;;;;;;;;;;21.50;38.30;;;;;;465117;256;1171;-44
2022/12/02 05:22:53;;;;;;;;;;;21.50;38.20;;;;;;464863;256;1235;-43
2022/12/02 05:24:54;;;;;;;;;;;21.40;38.20;;;;;;465005;256;1251;-44
2022/12/02 05:26:55;;;;;;;;;;;21.40;38.20;;;;;;464608;256;1337;-44
2022/12/02 05:28:57;;;;;;;;;;;21.40;38.30;;;;;;464810;256;1243;-44
2022/12/02 05:30:58;;;;;;;;;;;21.40;38.30;;;;;;464630;256;1647;-43
2022/12/02 05:32:59;;;;;;;;;;;21.40;38.30;;;;;;465030;256;1296;-43
2022/12/02 05:35:01;;;;;;;;;;;21.40;38.40;;;;;;464791;256;1275;-44
2022/12/02 05:37:02;;;;;;;;;;;21.30;38.40;;;;;;464533;256;2194;-44
2022/12/02 05:39:04;;;;;;;;;;;21.40;38.40;;;;;;464666;256;1272;-44
2022/12/02 05:41:05;;;;;;;;;;;21.30;38.30;;;;;;464450;256;1639;-44
2022/12/02 05:43:06;;;;;;;;;;;21.40;38.40;;;;;;464487;256;1259;-44
2022/12/02 05:45:08;;;;;;;;;;;21.40;38.50;;;;;;464602;256;1395;-44
2022/12/02 05:47:09;;;;;;;;;;;21.40;38.40;;;;;;464475;256;1310;-43
2022/12/02 05:49:10;;;;;;;;;;;21.30;38.30;;;;;;464732;256;1330;-44
2022/12/02 05:51:12;;;;;;;;;;;21.40;38.40;;;;;;464674;256;1468;-43
2022/12/02 05:53:13;;;;;;;;;;;21.30;38.40;;;;;;464823;256;1316;-44
2022/12/02 05:55:15;;;;;;;;;;;21.30;38.40;;;;;;464661;256;1336;-44
2022/12/02 05:57:16;;;;;;;;;;;21.30;38.40;;;;;;464748;256;2214;-44
2022/12/02 05:59:18;;;;;;;;;;;21.30;38.40;;;;;;464633;256;1370;-44
2022/12/02 06:01:19;;;;;;;;;;;21.30;38.40;;;;;;464574;256;1288;-44
2022/12/02 06:03:20;;;;;;;;;;;21.40;38.40;;;;;;464755;256;1290;-44
2022/12/02 06:05:21;;;;;;;;;;;21.30;38.30;;;;;;464908;256;1234;-44
2022/12/02 06:07:23;;;;;;;;;;;21.30;38.40;;;;;;464639;256;1244;-44
2022/12/02 06:09:24;;;;;;;;;;;21.30;38.40;;;;;;464738;256;1861;-44
2022/12/02 06:11:27;;;;;;;;;;;21.30;38.30;;;;;;464546;256;1364;-43
2022/12/02 06:13:27;;;;;;;;;;;21.30;38.40;;;;;;464470;256;1588;-43
2022/12/02 06:15:28;;;;;;;;;;;21.30;38.50;;;;;;464539;256;1256;-44
2022/12/02 06:17:29;;;;;;;;;;;21.30;38.40;;;;;;464709;256;2162;-44
2022/12/02 06:19:31;;;;;;;;;;;21.30;38.50;;;;;;464693;256;1629;-44
2022/12/02 06:21:32;;;;;;;;;;;21.30;38.50;;;;;;464708;256;1391;-44
2022/12/02 06:23:33;;;;;;;;;;;21.30;38.50;;;;;;464617;256;1364;-43
2022/12/02 06:25:35;;;;;;;;;;;21.30;38.40;;;;;;464688;256;1380;-44
2022/12/02 06:27:36;;;;;;;;;;;21.20;38.50;;;;;;464577;256;1256;-44
2022/12/02 06:29:37;;;;;;;;;;;21.30;38.50;;;;;;464676;256;1249;-44
2022/12/02 06:31:40;;;;;;;;;;;21.30;38.50;;;;;;464604;256;1202;-44
2022/12/02 06:33:40;;;;;;;;;;;21.30;38.50;;;;;;464474;257;1798;-43
2022/12/02 06:35:41;;;;;;;;;;;21.30;38.50;;;;;;464840;256;1686;-44
2022/12/02 06:37:43;;;;;;;;;;;21.30;38.50;;;;;;464646;256;2159;-44
2022/12/02 06:39:44;;;;;;;;;;;21.30;38.50;;;;;;464603;256;1205;-44
2022/12/02 06:41:45;;;;;;;;;;;21.30;38.50;;;;;;464642;256;1236;-44
2022/12/02 06:46:07;;;;;;;;;;;21.20;38.50;;;;;;464514;257;1210;-43
2022/12/02 06:48:08;;;;;;;;;;;21.30;38.60;;;;;;464596;256;1385;-43
2022/12/02 06:50:10;;;;;;;;;;;21.30;38.60;;;;;;464714;256;1144;-44
2022/12/02 06:52:11;;;;;;;;;;;21.20;38.50;;;;;;464931;256;1218;-44
2022/12/02 06:54:12;;;;;;;;;;;21.30;38.60;;;;;;464840;256;1399;-43
2022/12/02 06:56:14;;;;;;;;;;;21.30;38.60;;;;;;464917;256;1243;-44
2022/12/02 06:58:15;;;;;;;;;;;21.30;38.60;;;;;;464668;256;2190;-43
2022/12/02 07:00:16;;;;;;;;;;;21.30;38.50;;;;;;465024;256;1743;-44
2022/12/02 07:02:18;;;;;;;;;;;21.20;38.50;;;;;;464511;256;1423;-44
2022/12/02 07:04:19;;;;;;;;;;;21.30;38.60;;;;;;464612;256;1242;-43
2022/12/02 07:06:20;;;;;;;;;;;21.20;38.50;;;;;;464365;256;1333;-44
2022/12/02 07:08:22;;;;;;;;;;;21.40;38.40;;;;;;464504;256;1390;-44
2022/12/02 07:10:23;;;;;;;;;;;21.60;38.00;;;;;;464393;256;1644;-44
2022/12/02 07:12:24;;;;;;;;;;;21.70;37.60;;;;;;464512;256;1772;-44
2022/12/02 07:14:26;;;;;;;;;;;21.90;37.30;;;;;;464646;256;1455;-43
2022/12/02 07:16:27;;;;;;;;;;;22.00;37.00;;;;;;464424;256;1269;-44
2022/12/02 07:18:28;;;;;;;;;;;22.10;36.80;;;;;;464557;256;2162;-44
2022/12/02 07:20:30;;;;;;;;;;;22.20;36.50;;;;;;464336;256;1559;-44
2022/12/02 07:22:31;;;;;;;;;;;22.30;36.10;;;;;;464528;256;1647;-44
2022/12/02 07:24:32;;;;;;;;;;;22.40;36.10;;;;;;464580;256;1333;-44
2022/12/02 07:26:34;;;;;;;;;;;22.40;36.00;;;;;;464535;256;1562;-44
2022/12/02 07:28:35;;;;;;;;;;;22.50;35.90;;;;;;464589;256;1253;-44
2022/12/02 07:30:36;;;;;;;;;;;22.50;35.70;;;;;;464629;256;1321;-44
2022/12/02 07:32:38;;;;;;;;;;;22.60;35.60;;;;;;464524;256;1389;-44
2022/12/02 07:34:39;;;;;;;;;;;22.60;35.50;;;;;;464608;256;1294;-44
2022/12/02 07:36:40;;;;;;;;;;;22.70;35.60;;;;;;464557;256;1288;-44
2022/12/02 07:38:42;;;;;;;;;;;22.70;35.50;;;;;;464484;256;2214;-44
2022/12/02 07:40:43;;;;;;;;;;;22.70;35.50;;;;;;464302;256;1249;-44
2022/12/02 07:42:44;;;;;;;;;;;22.80;35.50;;;;;;464477;256;1225;-44
2022/12/02 07:44:45;;;;;;;;;;;22.80;35.40;;;;;;464927;256;1324;-44
2022/12/02 07:46:47;;;;;;;;;;;22.90;35.30;;;;;;464503;256;1615;-44
2022/12/02 07:48:48;;;;;;;;;;;22.90;35.30;;;;;;464472;256;1262;-44
2022/12/02 07:50:50;;;;;;;;;;;22.90;35.30;;;;;;464231;256;1169;-44
2022/12/02 07:52:51;;;;;;;;;;;22.90;35.20;;;;;;464303;256;1278;-44
2022/12/02 07:54:53;;;;;;;;;;;23.00;35.20;;;;;;464458;256;1254;-44
2022/12/02 07:56:54;;;;;;;;;;;23.00;35.20;;;;;;464464;256;1208;-45
2022/12/02 07:58:55;;;;;;;;;;;23.00;35.10;;;;;;464379;256;2187;-44
2022/12/02 08:00:57;;;;;;;;;;;23.00;35.00;;;;;;464289;256;1281;-44
2022/12/02 08:02:58;;;;;;;;;;;23.10;35.10;;;;;;464438;256;1441;-44
2022/12/02 08:04:59;;;;;;;;;;;23.10;35.00;;;;;;464587;256;1282;-44
2022/12/02 08:07:01;;;;;;;;;;;23.10;34.90;;;;;;464399;256;1372;-44
2022/12/02 08:09:02;;;;;;;;;;;23.20;34.90;;;;;;464318;256;1296;-44
2022/12/02 08:11:03;;;;;;;;;;;23.20;34.90;;;;;;464442;256;1234;-44
2022/12/02 08:13:05;;;;;;;;;;;23.20;34.90;;;;;;464371;256;1388;-44
2022/12/02 08:15:06;;;;;;;;;;;23.20;34.90;;;;;;464342;256;1246;-45
2022/12/02 08:17:07;;;;;;;;;;;23.20;34.80;;;;;;464318;256;1382;-44
2022/12/02 08:19:09;;;;;;;;;;;23.20;34.80;;;;;;464350;256;2183;-43
2022/12/02 08:21:10;;;;;;;;;;;23.30;34.80;;;;;;464221;256;1573;-44
2022/12/02 08:23:11;;;;;;;;;;;23.30;34.80;;;;;;464401;256;1399;-44
2022/12/02 08:25:12;;;;;;;;;;;23.30;34.70;;;;;;464336;256;1290;-44
2022/12/02 08:27:14;;;;;;;;;;;23.30;34.80;;;;;;464499;256;1194;-44
2022/12/02 08:29:15;;;;;;;;;;;23.30;34.60;;;;;;464485;256;1219;-44
2022/12/02 08:31:16;;;;;;;;;;;23.30;34.60;;;;;;464646;256;1409;-44
2022/12/02 08:33:18;;;;;;;;;;;23.30;34.60;;;;;;464538;256;1256;-44
2022/12/02 08:35:19;;;;;;;;;;;23.40;34.60;;;;;;464709;256;1308;-44
2022/12/02 08:37:20;;;;;;;;;;;23.40;34.60;;;;;;464425;256;1257;-44
2022/12/02 08:39:22;;;;;;;;;;;23.40;34.60;;;;;;464489;256;2223;-44
2022/12/02 08:41:23;;;;;;;;;;;23.40;34.60;;;;;;464586;256;1325;-44
2022/12/02 08:43:24;;;;;;;;;;;23.40;34.60;;;;;;464495;256;1262;-44
2022/12/02 08:45:26;;;;;;;;;;;23.40;34.60;;;;;;464374;256;1237;-44
2022/12/02 08:47:27;;;;;;;;;;;23.40;34.50;;;;;;464410;256;1251;-44
2022/12/02 08:49:28;;;;;;;;;;;23.50;34.60;;;;;;464477;256;1293;-46
2022/12/02 08:51:30;;;;;;;;;;;23.50;34.70;;;;;;464578;256;1443;-44
2022/12/02 08:53:31;;;;;;;;;;;23.50;34.60;;;;;;464421;256;1338;-44
2022/12/02 08:55:32;;;;;;;;;;;23.40;34.70;;;;;;464551;256;1183;-44
2022/12/02 08:57:34;;;;;;;;;;;23.40;34.80;;;;;;464355;256;1282;-44
2022/12/02 08:59:35;;;;;;;;;;;23.30;35.00;;;;;;464420;257;2210;-44
2022/12/02 09:01:36;;;;;;;;;;;23.10;35.30;;;;;;464463;256;1285;-44
2022/12/02 09:03:38;;;;;;;;;;;23.00;35.60;;;;;;464334;256;1227;-44
2022/12/02 09:05:40;;;;;;;;;;;22.80;35.80;;;;;;464389;256;1468;-44
2022/12/02 09:07:41;;;;;;;;;;;22.60;36.10;;;;;;464400;256;1177;-44
2022/12/02 09:09:42;;;;;;;;;;;22.60;36.30;;;;;;464475;256;1124;-44
2022/12/02 09:11:44;;;;;;;;;;;22.60;36.40;;;;;;464480;256;1105;-44
2022/12/02 09:13:45;;;;;;;;;;;22.50;36.50;;;;;;464546;256;1167;-44
2022/12/02 09:15:46;;;;;;;;;;;22.40;36.60;;;;;;464482;256;1303;-44
2022/12/02 09:17:48;;;;;;;;;;;22.40;36.70;;;;;;464499;256;1267;-44
2022/12/02 09:19:49;;;;;;;;;;;22.30;36.80;;;;;;464420;256;2179;-44
2022/12/02 09:21:50;;;;;;;;;;;22.30;37.00;;;;;;464481;256;1229;-44
2022/12/02 09:23:51;;;;;;;;;;;22.40;37.00;;;;;;464421;256;1287;-44
2022/12/02 09:25:53;;;;;;;;;;;22.60;36.70;;;;;;464674;256;1221;-44
2022/12/02 09:27:54;;;;;;;;;;;22.50;36.80;;;;;;464530;256;1306;-44
2022/12/02 09:29:55;;;;;;;;;;;22.40;37.10;;;;;;464491;256;1356;-43
2022/12/02 09:31:57;;;;;;;;;;;22.30;37.20;;;;;;464076;256;1346;-44
2022/12/02 09:33:58;;;;;;;;;;;22.30;37.40;;;;;;464299;256;1313;-44
2022/12/02 09:35:59;;;;;;;;;;;22.30;37.40;;;;;;464549;256;1285;-44
2022/12/02 09:38:01;;;;;;;;;;;22.20;37.40;;;;;;464360;256;2256;-44
2022/12/02 09:40:02;;;;;;;;;;;22.20;37.50;;;;;;464469;256;2131;-44
2022/12/02 09:42:03;;;;;;;;;;;22.10;37.40;;;;;;464648;256;1323;-44
2022/12/02 09:44:05;;;;;;;;;;;22.10;37.40;;;;;;464326;256;1248;-44
2022/12/02 09:46:08;;;;;;;;;;;22.10;37.50;;;;;;464224;256;1296;-44
2022/12/02 09:48:07;;;;;;;;;;;22.10;37.50;;;;;;464360;256;2017;-44
2022/12/02 09:50:09;;;;;;;;;;;22.10;37.50;;;;;;464536;256;1254;-44
2022/12/02 09:52:12;;;;;;;;;;;22.00;37.50;;;;;;464315;256;1282;-44
2022/12/02 09:54:12;;;;;;;;;;;22.00;37.60;;;;;;464163;256;1309;-44
2022/12/02 09:56:13;;;;;;;;;;;22.00;37.70;;;;;;464353;256;1312;-44
2022/12/02 09:58:15;;;;;;;;;;;22.00;37.70;;;;;;464255;256;2163;-44
2022/12/02 10:00:16;;;;;;;;;;;22.00;37.70;;;;;;464546;256;1601;-44
2022/12/02 10:02:17;;;;;;;;;;;22.00;37.70;;;;;;464303;256;1307;-44
2022/12/02 10:04:18;;;;;;;;;;;22.00;37.60;;;;;;464471;256;1221;-44
2022/12/02 10:06:20;;;;;;;;;;;22.00;37.60;;;;;;464380;256;1233;-44
2022/12/02 10:08:21;;;;;;;;;;;22.00;37.60;;;;;;464357;256;1203;-44
2022/12/02 10:10:22;;;;;;;;;;;22.00;37.70;;;;;;464415;256;1296;-44
2022/12/02 10:12:24;;;;;;;;;;;22.00;37.70;;;;;;464336;256;1302;-44
2022/12/02 10:14:25;;;;;;;;;;;22.00;37.80;;;;;;464402;256;1274;-44
2022/12/02 10:16:26;;;;;;;;;;;22.00;37.70;;;;;;464348;256;1301;-44
2022/12/02 10:18:28;;;;;;;;;;;21.90;37.70;;;;;;464416;256;2163;-44
2022/12/02 10:20:29;;;;;;;;;;;22.00;37.80;;;;;;464116;256;1355;-44
2022/12/02 10:22:30;;;;;;;;;;;22.00;37.80;;;;;;464482;256;1339;-44
2022/12/02 10:24:32;;;;;;;;;;;22.00;37.80;;;;;;464219;256;1248;-44
2022/12/02 10:26:33;;;;;;;;;;;21.90;37.80;;;;;;464355;256;1207;-44
2022/12/02 10:28:34;;;;;;;;;;;21.90;37.90;;;;;;464457;256;1247;-44
2022/12/02 10:30:37;;;;;;;;;;;22.00;37.90;;;;;;464306;256;1174;-44
2022/12/02 10:32:37;;;;;;;;;;;22.00;37.90;;;;;;464000;256;1543;-44
2022/12/02 10:34:38;;;;;;;;;;;21.90;37.80;;;;;;464190;256;1181;-44
2022/12/02 10:36:40;;;;;;;;;;;21.90;37.80;;;;;;464268;256;1195;-44
2022/12/02 10:38:41;;;;;;;;;;;22.00;37.90;;;;;;464388;256;2210;-44
2022/12/02 10:40:42;;;;;;;;;;;22.00;37.90;;;;;;464467;256;1190;-44
2022/12/02 10:42:44;;;;;;;;;;;21.90;37.80;;;;;;464301;256;1168;-44
2022/12/02 10:44:45;;;;;;;;;;;21.90;37.80;;;;;;464100;256;1290;-44
2022/12/02 10:46:46;;;;;;;;;;;21.90;37.80;;;;;;464286;256;1282;-44
2022/12/02 10:48:47;;;;;;;;;;;21.90;37.90;;;;;;464238;256;1220;-44
2022/12/02 10:50:49;;;;;;;;;;;22.00;37.90;;;;;;464289;256;1198;-44
2022/12/02 10:52:50;;;;;;;;;;;22.00;37.80;;;;;;464318;256;1256;-44
2022/12/02 10:54:52;;;;;;;;;;;21.90;37.80;;;;;;464417;256;1210;-44
2022/12/02 10:56:53;;;;;;;;;;;21.90;37.90;;;;;;464472;256;1547;-44
2022/12/02 10:58:55;;;;;;;;;;;21.90;37.80;;;;;;464270;256;2214;-44
2022/12/02 11:00:56;;;;;;;;;;;22.00;37.70;;;;;;464274;256;1993;-44
2022/12/02 11:02:57;;;;;;;;;;;22.20;37.50;;;;;;464399;256;1085;-44
2022/12/02 11:05:00;;;;;;;;;;;22.30;37.20;;;;;;464494;256;1181;-44
2022/12/02 11:06:59;;;;;;;;;;;22.20;37.20;;;;;;464514;256;2041;-44
2022/12/02 11:09:01;;;;;;;;;;;22.20;37.30;;;;;;464466;256;1218;-44
2022/12/02 11:11:02;;;;;;;;;;;22.10;37.40;;;;;;464497;256;1103;-44
2022/12/02 11:13:03;;;;;;;;;;;22.00;37.50;;;;;;464448;256;1181;-44
2022/12/02 11:15:05;;;;;;;;;;;22.00;37.50;;;;;;464511;256;1642;-44
2022/12/02 11:17:06;;;;;;;;;;;22.00;37.60;;;;;;464432;256;1140;-44
2022/12/02 11:19:07;;;;;;;;;;;21.90;37.60;;;;;;464468;256;2222;-44
2022/12/02 11:21:09;;;;;;;;;;;21.90;37.70;;;;;;464423;256;1200;-44
2022/12/02 11:23:10;;;;;;;;;;;21.90;37.70;;;;;;464443;256;1229;-44
2022/12/02 11:25:12;;;;;;;;;;;21.80;37.70;;;;;;464718;256;1268;-44
2022/12/02 11:27:13;;;;;;;;;;;21.90;37.80;;;;;;464379;256;1823;-44
2022/12/02 11:29:16;;;;;;;;;;;21.80;37.80;;;;;;464497;256;1274;-44
2022/12/02 11:31:17;;;;;;;;;;;21.80;37.90;;;;;;464352;256;1277;-44
2022/12/02 11:33:18;;;;;;;;;;;21.80;37.90;;;;;;464436;256;1583;-44
2022/12/02 11:35:19;;;;;;;;;;;21.70;37.90;;;;;;464322;256;1308;-44
2022/12/02 11:37:21;;;;;;;;;;;21.70;37.90;;;;;;464509;256;1265;-44
2022/12/02 11:39:22;;;;;;;;;;;21.70;37.90;;;;;;464134;256;2199;-44
2022/12/02 11:41:23;;;;;;;;;;;21.70;37.90;;;;;;464266;256;1792;-43
2022/12/02 11:43:25;;;;;;;;;;;21.80;37.90;;;;;;464194;256;1273;-44
2022/12/02 11:45:26;;;;;;;;;;;21.80;37.80;;;;;;464364;256;1258;-44
2022/12/02 11:47:27;;;;;;;;;;;21.80;37.90;;;;;;464291;256;1272;-44
2022/12/02 11:49:29;;;;;;;;;;;21.80;37.80;;;;;;464280;256;1254;-44
2022/12/02 11:51:30;;;;;;;;;;;21.80;37.90;;;;;;464402;256;1718;-44
2022/12/02 11:53:31;;;;;;;;;;;21.80;37.90;;;;;;464498;256;1270;-44
2022/12/02 11:55:33;;;;;;;;;;;21.80;37.80;;;;;;464494;256;1525;-43
2022/12/02 11:57:34;;;;;;;;;;;21.80;37.80;;;;;;464280;256;1209;-44
2022/12/02 11:59:35;;;;;;;;;;;21.90;37.90;;;;;;464291;256;2210;-43
2022/12/02 12:01:37;;;;;;;;;;;21.80;37.80;;;;;;464165;256;1706;-43
2022/12/02 12:03:38;;;;;;;;;;;21.90;37.90;;;;;;464404;256;1241;-44